Aquasco, Maryland
Current Conditions -  °F | °C
As of 8:58 AM on Friday 24 Oct 2014 (Local Time) from KADW Reporting Station
Clear Clear  
Wind Chill: 55°   Ceiling: Unl
Heat Index: 55°   Visibility: 10mi
Dew Point: 43°   Wind: 17mph
Humidity: 65%   Direction: 320°NW
Pressure: 29.96"   Gusts: 26mph
Location:  38.58°N, 76.73°W
Report Text: KADW 241258Z AUTO 32015G23KT 10SM CLR 13/06 A2996 RMK AO2 PK WND 30027/47 SLP152 T01280063 $
Loading
Personal Weather Stations






























Interactive Weather Map
Tropical Storm Tracking
New forecast layout! Learn more

10-Day Weather Forecast

Advertisements
Track Severe Weather on mobile